createdAt,value
2023-04-16T00:00:19.730Z,100390.05
2023-04-16T00:05:42.361Z,100391.69
2023-04-16T00:10:45.069Z,100392.66
2023-04-16T00:15:47.902Z,100392.95
2023-04-16T00:20:50.886Z,100395.09
2023-04-16T00:25:59.804Z,100397.19
2023-04-16T00:31:02.711Z,100392.63
2023-04-16T00:36:05.654Z,100394.58
2023-04-16T00:41:08.320Z,100398.36
2023-04-16T00:46:12.112Z,100399.51
2023-04-16T00:51:15.433Z,100401.90
2023-04-16T00:56:19.090Z,100399.52
2023-04-16T01:01:21.840Z,100402.77
2023-04-16T01:06:24.532Z,100409.77
2023-04-16T01:11:27.399Z,100400.92
2023-04-16T01:16:30.245Z,100403.18
2023-04-16T01:21:33.012Z,100403.63
2023-04-16T01:26:35.697Z,100401.19
2023-04-16T01:31:38.418Z,100397.11
2023-04-16T01:36:41.105Z,100397.18
2023-04-16T01:41:43.882Z,100398.70
2023-04-16T01:46:46.562Z,100393.90
2023-04-16T01:51:49.271Z,100393.33
2023-04-16T01:56:51.937Z,100397.19
2023-04-16T02:01:54.740Z,100397.61
2023-04-16T02:06:57.537Z,100397.35
2023-04-16T02:12:00.240Z,100403.98
2023-04-16T02:17:03.507Z,100405.60
2023-04-16T02:22:06.438Z,100407.79
2023-04-16T02:27:09.135Z,100408.60
2023-04-16T02:32:11.971Z,100413.20
2023-04-16T02:37:15.430Z,100414.21
2023-04-16T02:42:18.107Z,100409.55
2023-04-16T02:47:20.818Z,100410.84
2023-04-16T02:52:23.512Z,100417.41
2023-04-16T02:57:26.207Z,100416.28
2023-04-16T03:02:28.961Z,100422.05
2023-04-16T03:07:31.793Z,100426.98
2023-04-16T03:12:34.711Z,100430.50
2023-04-16T03:17:37.454Z,100433.80
2023-04-16T03:22:40.718Z,100436.43
2023-04-16T03:27:43.471Z,100438.14
2023-04-16T03:32:46.170Z,100437.60
2023-04-16T03:37:50.142Z,100440.90
2023-04-16T03:42:52.795Z,100444.45
2023-04-16T03:47:55.487Z,100448.30
2023-04-16T03:52:58.230Z,100450.03
2023-04-16T03:58:03.163Z,100452.02
2023-04-16T04:03:06.086Z,100454.27
2023-04-16T04:08:09.487Z,100459.77
2023-04-16T04:13:12.133Z,100464.05
2023-04-16T04:18:14.830Z,100468.66
2023-04-16T04:23:17.518Z,100471.01
2023-04-16T04:28:20.174Z,100475.42
2023-04-16T04:33:22.875Z,100482.11
2023-04-16T04:38:25.568Z,100484.73
2023-04-16T04:43:28.245Z,100490.45
2023-04-16T04:48:31.104Z,100492.33
2023-04-16T04:53:33.861Z,100496.41
2023-04-16T04:58:36.531Z,100500.97
2023-04-16T05:03:39.404Z,100506.70
2023-04-16T05:08:42.145Z,100505.93
2023-04-16T05:13:44.806Z,100510.17
2023-04-16T05:18:47.518Z,100510.57
2023-04-16T05:23:50.320Z,100512.83
2023-04-16T05:28:53.505Z,100513.58
2023-04-16T05:33:56.153Z,100522.30
2023-04-16T05:38:58.841Z,100531.86
2023-04-16T05:44:01.519Z,100531.70
2023-04-16T05:49:04.254Z,100532.96
2023-04-16T05:54:06.935Z,100532.80
2023-04-16T05:59:09.782Z,100530.94
2023-04-16T06:04:12.821Z,100531.39
2023-04-16T06:09:15.737Z,100532.25
2023-04-16T06:14:18.644Z,100535.59
2023-04-16T06:19:21.393Z,100541.86
2023-04-16T06:24:24.065Z,100544.38
2023-04-16T06:29:36.876Z,100545.73
2023-04-16T06:34:42.964Z,100547.38
2023-04-16T06:39:45.763Z,100550.95
2023-04-16T06:44:48.413Z,100548.89
2023-04-16T06:49:51.058Z,100546.29
2023-04-16T06:54:53.708Z,100551.85
2023-04-16T06:59:56.379Z,100551.63
2023-04-16T07:04:59.071Z,100556.66
2023-04-16T07:10:01.749Z,100556.10
2023-04-16T07:15:05.535Z,100556.73
2023-04-16T07:20:08.873Z,100560.42
2023-04-16T07:25:11.601Z,100570.73
2023-04-16T07:30:14.276Z,100569.98
2023-04-16T07:35:17.376Z,100574.80
2023-04-16T07:40:20.020Z,100578.36
2023-04-16T07:45:23.736Z,100575.74
2023-04-16T07:50:26.369Z,100582.96
2023-04-16T07:55:29.024Z,100584.59
2023-04-16T08:00:31.840Z,100581.80
2023-04-16T08:05:34.559Z,100586.61
2023-04-16T08:10:37.267Z,100593.40
2023-04-16T08:15:39.915Z,100594.89
2023-04-16T08:20:43.200Z,100593.84
2023-04-16T08:25:47.614Z,100598.53
2023-04-16T08:30:50.465Z,100606.61
2023-04-16T08:35:53.124Z,100607.91
2023-04-16T08:40:58.157Z,100609.57
2023-04-16T08:46:01.252Z,100618.07
2023-04-16T08:51:06.366Z,100623.02
2023-04-16T08:56:11.449Z,100627.38
2023-04-16T09:01:15.095Z,100635.50
2023-04-16T09:06:18.375Z,100639.36
2023-04-16T09:11:21.927Z,100640.30
2023-04-16T09:16:25.228Z,100647.14
2023-04-16T09:21:28.058Z,100651.13
2023-04-16T09:26:31.192Z,100654.30
2023-04-16T09:31:33.913Z,100654.64
2023-04-16T09:36:37.136Z,100656.00
2023-04-16T09:41:40.893Z,100660.35
2023-04-16T09:46:43.702Z,100663.05
2023-04-16T09:51:49.726Z,100667.02
2023-04-16T09:56:56.829Z,100668.57
2023-04-16T10:02:14.864Z,100670.16
2023-04-16T10:07:19.883Z,100678.39
2023-04-16T10:12:22.632Z,100683.43
2023-04-16T10:17:26.561Z,100688.42
2023-04-16T10:22:29.405Z,100688.86
2023-04-16T10:27:32.877Z,100693.77
2023-04-16T10:32:36.892Z,100701.52
2023-04-16T10:37:41.053Z,100700.81
2023-04-16T10:42:54.545Z,100699.77
2023-04-16T10:47:58.439Z,100701.65
2023-04-16T10:53:20.729Z,100704.31
2023-04-16T10:58:30.656Z,100702.73
2023-04-16T11:03:33.709Z,100706.10
2023-04-16T11:08:44.297Z,100716.90
2023-04-16T11:13:57.158Z,100716.59
2023-04-16T11:19:00.071Z,100719.85
2023-04-16T11:24:02.762Z,100727.35
2023-04-16T11:29:15.079Z,100732.36
2023-04-16T11:34:18.918Z,100730.08
2023-04-16T11:39:21.641Z,100726.13
2023-04-16T11:44:27.414Z,100729.57
2023-04-16T11:49:30.802Z,100738.52
2023-04-16T11:54:34.938Z,100742.51
2023-04-16T11:59:37.677Z,100748.56
2023-04-16T12:05:00.708Z,100754.73
2023-04-16T12:10:08.111Z,100755.67
2023-04-16T12:15:11.214Z,100762.63
2023-04-16T12:20:15.479Z,100765.35
2023-04-16T12:25:18.331Z,100767.05
2023-04-16T12:30:25.051Z,100771.77
2023-04-16T12:35:32.887Z,100771.77
2023-04-16T12:40:36.473Z,100768.27
2023-04-16T12:45:40.425Z,100764.05
2023-04-16T12:50:44.358Z,100765.66
2023-04-16T12:55:47.277Z,100768.33
2023-04-16T13:00:49.956Z,100764.85
2023-04-16T13:05:52.735Z,100765.15
2023-04-16T13:10:55.633Z,100769.52
2023-04-16T13:15:58.306Z,100770.59
2023-04-16T13:21:01.297Z,100771.86
2023-04-16T13:26:04.093Z,100770.92
2023-04-16T13:31:06.868Z,100769.27
2023-04-16T13:36:09.578Z,100775.86
2023-04-16T13:41:12.265Z,100779.08
2023-04-16T13:46:15.012Z,100778.36
2023-04-16T13:51:17.690Z,100775.20
2023-04-16T13:56:20.506Z,100779.78
2023-04-16T14:01:23.408Z,100779.27
2023-04-16T14:06:27.037Z,100779.09
2023-04-16T14:11:29.929Z,100781.48
2023-04-16T14:16:32.943Z,100782.77
2023-04-16T14:21:35.949Z,100778.09
2023-04-16T14:26:38.652Z,100779.34
2023-04-16T14:31:41.625Z,100776.20
2023-04-16T14:36:44.495Z,100781.92
2023-04-16T14:41:47.173Z,100779.59
2023-04-16T14:46:49.877Z,100780.15
2023-04-16T14:51:52.674Z,100783.82
2023-04-16T14:56:56.544Z,100787.89
2023-04-16T15:01:59.684Z,100794.65
2023-04-16T15:07:02.403Z,100798.48
2023-04-16T15:12:05.265Z,100800.36
2023-04-16T15:17:08.063Z,100798.14
2023-04-16T15:22:10.847Z,100798.36
2023-04-16T15:27:14.741Z,100803.29
2023-04-16T15:32:17.505Z,100807.03
2023-04-16T15:37:20.368Z,100806.84
2023-04-16T15:42:23.989Z,100807.46
2023-04-16T15:47:26.742Z,100811.26
2023-04-16T15:52:30.033Z,100813.34
2023-04-16T15:57:32.747Z,100816.44
2023-04-16T16:02:36.136Z,100818.52
2023-04-16T16:07:39.869Z,100822.92
2023-04-16T16:12:42.626Z,100826.28
2023-04-16T16:17:45.689Z,100827.85
2023-04-16T16:22:49.333Z,100836.23
2023-04-16T16:27:52.918Z,100839.28
2023-04-16T16:32:55.665Z,100841.55
2023-04-16T16:37:59.437Z,100843.45
2023-04-16T16:43:02.788Z,100844.21
2023-04-16T16:48:05.948Z,100848.08
2023-04-16T16:53:08.748Z,100853.40
2023-04-16T16:58:11.800Z,100856.61
2023-04-16T17:03:14.660Z,100854.13
2023-04-16T17:08:17.632Z,100855.45
2023-04-16T17:13:20.581Z,100855.11
2023-04-16T17:18:23.274Z,100864.45
2023-04-16T17:23:25.971Z,100869.98
2023-04-16T17:28:28.635Z,100873.04
2023-04-16T17:33:31.375Z,100877.29
2023-04-16T17:38:34.638Z,100878.14
2023-04-16T17:43:37.314Z,100880.39
2023-04-16T17:48:39.949Z,100886.45
2023-04-16T17:53:43.596Z,100888.70
2023-04-16T17:58:46.328Z,100889.53
2023-04-16T18:03:49.134Z,100898.49
2023-04-16T18:08:51.947Z,100907.38
2023-04-16T18:13:54.632Z,100914.50
2023-04-16T18:18:57.364Z,100915.48
2023-04-16T18:24:01.002Z,100917.47
2023-04-16T18:29:04.243Z,100915.24
2023-04-16T18:34:06.963Z,100925.27
2023-04-16T18:39:09.752Z,100930.67
2023-04-16T18:44:12.632Z,100932.80
2023-04-16T18:49:15.483Z,100929.42
2023-04-16T18:54:19.920Z,100932.20
2023-04-16T18:59:22.593Z,100936.10
2023-04-16T19:04:25.398Z,100938.83
2023-04-16T19:09:28.158Z,100941.21
2023-04-16T19:14:30.835Z,100947.82
2023-04-16T19:19:33.564Z,100944.27
2023-04-16T19:24:36.206Z,100942.70
2023-04-16T19:29:40.506Z,100942.58
2023-04-16T19:34:43.257Z,100939.37
2023-04-16T19:39:46.052Z,100940.58
2023-04-16T19:44:48.736Z,100942.11
2023-04-16T19:49:51.589Z,100941.48
2023-04-16T19:54:54.356Z,100935.40
2023-04-16T19:59:57.129Z,100936.11
2023-04-16T20:05:01.390Z,100930.05
2023-04-16T20:10:04.341Z,100931.50
2023-04-16T20:15:07.833Z,100930.23
2023-04-16T20:20:11.533Z,100930.83
2023-04-16T20:25:14.506Z,100928.70
2023-04-16T20:30:17.199Z,100928.31
2023-04-16T20:35:19.873Z,100934.00
2023-04-16T20:40:23.994Z,100939.61
2023-04-16T20:45:38.211Z,100941.99
2023-04-16T20:50:40.872Z,100944.86
2023-04-16T20:55:43.545Z,100951.59
2023-04-16T21:00:53.164Z,100952.04
2023-04-16T21:05:55.868Z,100956.69
2023-04-16T21:10:58.558Z,100960.40
2023-04-16T21:16:01.323Z,100962.79
2023-04-16T21:21:04.085Z,100962.81
2023-04-16T21:26:06.769Z,100964.51
2023-04-16T21:31:09.846Z,100963.42
2023-04-16T21:36:12.561Z,100963.66
2023-04-16T21:41:16.441Z,100960.83
2023-04-16T21:46:19.139Z,100961.11
2023-04-16T21:51:28.932Z,100963.77
2023-04-16T21:56:31.703Z,100964.84
2023-04-16T22:01:34.429Z,100966.86
2023-04-16T22:06:37.128Z,100967.13
2023-04-16T22:11:40.779Z,100966.96
2023-04-16T22:16:44.913Z,100964.54
2023-04-16T22:21:48.775Z,100963.34
2023-04-16T22:26:51.568Z,100965.07
2023-04-16T22:31:55.119Z,100964.23
2023-04-16T22:36:58.000Z,100966.92
2023-04-16T22:42:00.771Z,100969.75
2023-04-16T22:47:03.467Z,100965.39
2023-04-16T22:52:06.194Z,100968.25
2023-04-16T22:57:08.864Z,100979.02
2023-04-16T23:02:11.815Z,100978.66
2023-04-16T23:07:15.098Z,100977.30
2023-04-16T23:12:17.773Z,100976.49
2023-04-16T23:17:20.673Z,100976.59
2023-04-16T23:22:23.333Z,100977.05
2023-04-16T23:27:26.264Z,100984.81
2023-04-16T23:32:29.167Z,100985.66
2023-04-16T23:37:31.829Z,100986.11
2023-04-16T23:42:34.497Z,100990.02
2023-04-16T23:47:37.327Z,100992.64
2023-04-16T23:52:40.021Z,100986.59
2023-04-16T23:57:42.677Z,100986.08
